createdAt,value
2022-08-26T00:04:46.839Z,8.60
2022-08-26T00:09:50.043Z,8.90
2022-08-26T00:14:53.613Z,8.60
2022-08-26T00:19:56.835Z,7.40
2022-08-26T00:24:59.810Z,8.00
2022-08-26T00:30:07.250Z,7.40
2022-08-26T00:35:12.492Z,6.50
2022-08-26T00:40:21.867Z,6.10
2022-08-26T00:45:26.215Z,7.00
2022-08-26T00:50:35.293Z,7.80
2022-08-26T00:55:42.578Z,7.00
2022-08-26T01:00:50.152Z,7.10
2022-08-26T01:06:02.076Z,6.50
2022-08-26T01:11:06.894Z,6.90
2022-08-26T01:16:15.471Z,9.50
2022-08-26T01:21:29.446Z,9.10
2022-08-26T01:26:41.193Z,7.50
2022-08-26T01:31:50.003Z,6.80
2022-08-26T01:37:05.851Z,6.50
2022-08-26T01:42:16.168Z,6.20
2022-08-26T01:47:25.101Z,6.50
2022-08-26T01:52:31.077Z,6.50
2022-08-26T01:57:35.698Z,8.10
2022-08-26T02:02:49.575Z,7.70
2022-08-26T02:07:53.852Z,7.60
2022-08-26T02:12:58.191Z,6.10
2022-08-26T02:18:05.470Z,6.00
2022-08-26T02:23:09.515Z,5.90
2022-08-26T02:28:13.738Z,5.80
2022-08-26T02:33:18.314Z,4.60
2022-08-26T02:38:23.675Z,5.50
2022-08-26T02:43:31.623Z,5.10
2022-08-26T02:48:39.638Z,8.50
2022-08-26T02:53:43.817Z,11.80
2022-08-26T02:58:49.089Z,16.60
2022-08-26T03:03:55.093Z,8.20
2022-08-26T03:08:59.228Z,6.40
2022-08-26T03:14:04.275Z,6.30
2022-08-26T03:19:11.603Z,7.00
2022-08-26T03:29:39.639Z,10.10
2022-08-26T03:34:44.451Z,13.50
2022-08-26T03:39:51.434Z,6.30
2022-08-26T03:44:55.771Z,13.90
2022-08-26T03:50:01.030Z,32.90
2022-08-26T03:55:08.929Z,86.60
2022-08-26T04:00:19.618Z,51.80
2022-08-26T04:05:24.395Z,30.40
2022-08-26T04:10:29.069Z,16.70
2022-08-26T04:15:33.305Z,9.60
2022-08-26T04:20:37.815Z,8.10
2022-08-26T04:25:41.264Z,6.20
2022-08-26T04:30:45.428Z,4.80
2022-08-26T04:35:50.628Z,4.70
2022-08-26T04:40:55.553Z,4.90
2022-08-26T04:46:04.676Z,5.40
2022-08-26T04:56:14.755Z,14.60
2022-08-26T05:01:19.188Z,13.80
2022-08-26T05:06:23.718Z,12.10
2022-08-26T05:11:32.262Z,10.50
2022-08-26T05:16:36.342Z,5.80
2022-08-26T05:21:40.323Z,6.70
2022-08-26T05:26:44.882Z,6.50
2022-08-26T05:31:52.349Z,6.30
2022-08-26T05:36:56.788Z,5.80
2022-08-26T05:42:04.646Z,5.90
2022-08-26T05:47:08.816Z,6.20
2022-08-26T05:52:13.702Z,5.70
2022-08-26T05:57:18.582Z,5.30
2022-08-26T06:02:27.239Z,5.30
2022-08-26T06:08:02.427Z,6.40
2022-08-26T06:13:11.942Z,5.60
2022-08-26T06:18:20.184Z,5.10
2022-08-26T06:23:43.229Z,4.10
2022-08-26T06:28:47.336Z,4.70
2022-08-26T06:33:51.630Z,4.70
2022-08-26T06:39:01.401Z,6.30
2022-08-26T06:44:08.299Z,5.10
2022-08-26T06:49:13.524Z,5.00
2022-08-26T06:54:22.427Z,4.50
2022-08-26T06:59:28.245Z,4.70
2022-08-26T07:04:34.291Z,4.80
2022-08-26T07:09:39.738Z,5.50
2022-08-26T07:14:47.388Z,4.90
2022-08-26T07:19:52.536Z,4.80
2022-08-26T07:24:57.782Z,5.40
2022-08-26T07:30:03.163Z,5.30
2022-08-26T07:35:07.945Z,4.30
2022-08-26T07:40:12.660Z,4.90
2022-08-26T07:45:17.482Z,6.00
2022-08-26T07:50:48.781Z,5.10
2022-08-26T07:55:48.047Z,4.50
2022-08-26T08:01:20.267Z,3.70
2022-08-26T08:06:28.128Z,3.70
2022-08-26T08:11:32.867Z,3.70
2022-08-26T08:16:40.176Z,3.90
2022-08-26T08:21:52.669Z,3.40
2022-08-26T08:27:00.411Z,3.60
2022-08-26T08:32:05.570Z,3.70
2022-08-26T08:37:15.324Z,3.80
2022-08-26T08:42:44.621Z,2.70
2022-08-26T08:47:58.896Z,4.20
2022-08-26T08:53:20.983Z,4.20
2022-08-26T08:58:56.918Z,3.20
2022-08-26T09:04:20.659Z,3.70
2022-08-26T09:09:50.856Z,4.00
2022-08-26T09:15:03.090Z,3.90
2022-08-26T09:20:45.548Z,3.10
2022-08-26T09:25:56.992Z,3.80
2022-08-26T09:31:31.827Z,4.40
2022-08-26T09:36:45.209Z,3.80
2022-08-26T09:42:05.048Z,4.30
2022-08-26T09:47:13.051Z,3.70
2022-08-26T09:52:24.659Z,4.10
2022-08-26T09:57:32.736Z,3.40
2022-08-26T10:02:41.461Z,3.80
2022-08-26T10:07:54.397Z,3.40
2022-08-26T10:13:26.818Z,2.30
2022-08-26T10:18:37.918Z,3.30
2022-08-26T10:23:50.050Z,3.10
2022-08-26T10:29:07.900Z,3.20
2022-08-26T10:34:14.009Z,3.40
2022-08-26T10:39:27.067Z,3.20
2022-08-26T10:44:35.560Z,3.30
2022-08-26T10:49:45.130Z,2.90
2022-08-26T10:55:03.120Z,3.70
2022-08-26T11:00:32.449Z,3.40
2022-08-26T11:05:37.609Z,3.10
2022-08-26T11:10:42.811Z,3.40
2022-08-26T11:15:47.081Z,3.30
2022-08-26T11:20:51.569Z,3.60
2022-08-26T11:36:39.637Z,2.50
2022-08-26T11:41:46.423Z,2.90
2022-08-26T11:46:59.971Z,2.70
2022-08-26T11:52:16.141Z,2.40
2022-08-26T11:57:21.991Z,2.30
2022-08-26T12:02:27.234Z,2.80
2022-08-26T12:07:30.951Z,3.50
2022-08-26T12:12:42.826Z,2.70
2022-08-26T12:17:52.988Z,3.40
2022-08-26T12:23:00.744Z,2.80
2022-08-26T12:28:06.369Z,3.00
2022-08-26T12:33:22.742Z,3.40
2022-08-26T12:38:28.470Z,3.40
2022-08-26T12:43:44.337Z,2.90
2022-08-26T12:48:50.292Z,3.50
2022-08-26T12:53:55.253Z,3.00
2022-08-26T12:59:18.856Z,3.50
2022-08-26T13:04:44.315Z,3.50
2022-08-26T13:09:49.999Z,3.30
2022-08-26T13:14:55.152Z,3.40
2022-08-26T13:20:03.849Z,2.70
2022-08-26T13:25:09.115Z,2.80
2022-08-26T13:30:14.326Z,3.70
2022-08-26T13:35:19.032Z,3.20
2022-08-26T13:40:23.158Z,3.30
2022-08-26T13:45:28.774Z,2.80
2022-08-26T13:50:35.073Z,2.50
2022-08-26T13:55:39.458Z,3.10
2022-08-26T14:00:44.165Z,4.00
2022-08-26T14:05:48.752Z,3.80
2022-08-26T14:16:03.042Z,4.50
2022-08-26T14:21:09.667Z,4.10
2022-08-26T14:26:28.684Z,3.80
2022-08-26T14:31:35.497Z,4.50
2022-08-26T14:36:39.099Z,4.50
2022-08-26T14:41:55.904Z,3.80
2022-08-26T14:47:03.829Z,4.30
2022-08-26T14:52:12.887Z,4.40
2022-08-26T14:57:17.965Z,3.90
2022-08-26T15:07:39.303Z,5.20
2022-08-26T15:12:44.938Z,4.90
2022-08-26T15:17:51.594Z,4.90
2022-08-26T15:22:55.981Z,4.30
2022-08-26T15:28:00.123Z,5.30
2022-08-26T15:33:03.778Z,5.50
2022-08-26T15:38:07.783Z,6.40
2022-08-26T15:43:27.710Z,5.20
2022-08-26T15:48:31.718Z,5.50
2022-08-26T15:53:39.243Z,5.30
2022-08-26T15:58:44.914Z,5.50
2022-08-26T16:03:50.114Z,5.90
2022-08-26T16:08:55.955Z,5.30
2022-08-26T16:14:01.401Z,5.50
2022-08-26T16:19:08.024Z,5.50
2022-08-26T16:24:13.491Z,5.20
2022-08-26T16:34:27.951Z,6.00
2022-08-26T16:39:32.727Z,6.10
2022-08-26T16:44:47.356Z,5.30
2022-08-26T16:49:52.527Z,4.40
2022-08-26T16:54:56.829Z,5.30
2022-08-26T17:00:06.714Z,5.50
2022-08-26T17:05:14.283Z,5.50
2022-08-26T17:10:20.451Z,6.00
2022-08-26T17:15:27.134Z,5.60
2022-08-26T17:20:30.548Z,6.70
2022-08-26T17:25:33.893Z,5.60
2022-08-26T17:30:38.213Z,6.00
2022-08-26T17:35:48.113Z,6.90
2022-08-26T17:40:52.610Z,7.20
2022-08-26T17:46:04.585Z,7.10
2022-08-26T17:51:15.867Z,8.10
2022-08-26T17:56:24.540Z,8.10
2022-08-26T18:01:28.600Z,7.00
2022-08-26T18:06:32.737Z,7.30
2022-08-26T18:11:36.581Z,8.40
2022-08-26T18:16:41.914Z,8.80
2022-08-26T18:21:46.466Z,8.70
2022-08-26T18:26:51.533Z,7.00
2022-08-26T18:31:59.029Z,7.30
2022-08-26T18:37:19.700Z,7.20
2022-08-26T18:42:24.654Z,7.90
2022-08-26T18:47:28.473Z,7.50
2022-08-26T18:52:33.236Z,6.50
2022-08-26T18:57:37.046Z,6.60
2022-08-26T19:02:47.022Z,8.00
2022-08-26T19:07:57.222Z,7.70
2022-08-26T19:13:00.929Z,7.30
2022-08-26T19:18:08.016Z,7.00
2022-08-26T19:23:30.519Z,7.60
2022-08-26T19:28:39.303Z,7.00
2022-08-26T19:33:45.915Z,8.00
2022-08-26T19:38:50.551Z,8.80
2022-08-26T19:43:55.409Z,8.50
2022-08-26T19:49:03.460Z,8.70
2022-08-26T19:54:07.531Z,8.10
2022-08-26T19:59:12.411Z,8.50
2022-08-26T20:04:17.316Z,8.20
2022-08-26T20:09:23.054Z,8.30
2022-08-26T20:14:28.620Z,9.40
2022-08-26T20:19:51.826Z,9.00
2022-08-26T20:24:57.659Z,8.20
2022-08-26T20:30:03.159Z,9.80
2022-08-26T20:35:12.376Z,10.00
2022-08-26T20:40:20.387Z,10.40
2022-08-26T20:45:24.534Z,10.20
2022-08-26T20:50:29.264Z,10.30
2022-08-26T20:55:33.863Z,10.00
2022-08-26T21:00:38.918Z,9.60
2022-08-26T21:05:43.548Z,9.70
2022-08-26T21:10:47.411Z,9.20
2022-08-26T21:15:50.620Z,9.30
2022-08-26T21:20:54.553Z,9.80
2022-08-26T21:26:03.224Z,8.10
2022-08-26T21:31:10.301Z,9.40
2022-08-26T21:36:15.045Z,10.10
2022-08-26T21:41:24.493Z,9.40
2022-08-26T21:46:30.634Z,10.20
2022-08-26T21:51:36.639Z,9.90
2022-08-26T21:56:47.259Z,9.60
2022-08-26T22:01:51.465Z,9.40
2022-08-26T22:06:57.889Z,10.40
2022-08-26T22:12:01.184Z,9.60
2022-08-26T22:17:05.024Z,9.70
2022-08-26T22:22:09.141Z,8.70
2022-08-26T22:27:14.326Z,10.30
2022-08-26T22:32:18.965Z,10.70
2022-08-26T22:37:23.223Z,10.50
2022-08-26T22:42:30.590Z,9.30
2022-08-26T22:47:35.913Z,7.10
2022-08-26T22:52:42.636Z,9.20
2022-08-26T22:57:46.365Z,8.20
2022-08-26T23:02:50.690Z,9.80
2022-08-26T23:07:55.048Z,8.70
2022-08-26T23:12:58.998Z,7.90
2022-08-26T23:18:03.594Z,9.40
2022-08-26T23:23:08.442Z,8.90
2022-08-26T23:28:13.267Z,8.60
2022-08-26T23:33:17.515Z,8.80
2022-08-26T23:38:21.892Z,9.10
2022-08-26T23:43:26.977Z,9.10
2022-08-26T23:48:31.183Z,9.10
2022-08-26T23:53:35.338Z,9.50
2022-08-26T23:58:39.190Z,9.80
